Leesville, LA

3:24 AM CST on March 03, 2015 (GMT -0600)
Polk Army Air Field | Change Station
CLOSE
Current Station
Airport
Location: Fort Polk,
Elevation: 328 ft
Nearby Weather Stations
Active Advisory: Dense Fog Advisory

Elev 328 ft 31.04 °N, 93.19 °W | Updated 26 minutes ago

Fog
Fog
48 °F
Feels Like 48 °F
N
4
Wind Variable Wind from East

Today
High -- | Low -- °F
--% Chance of Precip.
Yesterday
High -- | Low -- °F
Precip. -- in
6:37 AM 6:12 PM
Waxing Gibbous, 95% visible
Pressure 30.12 in
Visibility 2.0 miles
Clouds Overcast 400 ft
Dew Point 47 °F
Humidity 99%
Rainfall 0.00 in
Snow Depth Not available.
UV 0 out of 12
Pollen 5.50 out of 12
Air Quality Not available.
Flu Activity Not available.
METAR KPOE 030858Z AUTO 10003KT 2SM BR OVC004 09/09 A3011 RMK AO2 VIS 2V2 1/2 SLP199 T00870085 57023

More Conditions Fewer Conditions

Pressure 30.12 in
Visibility 2.0 miles
Clouds Overcast 400 ft
Dew Point 47 °F
Humidity 99%
Rainfall 0.00 in
Snow Depth Not available.
UV 0 out of 12
Pollen 5.50 out of 12
Air Quality Not available.
Flu Activity Not available.
METAR KPOE 030858Z AUTO 10003KT 2SM BR OVC004 09/09 A3011 RMK AO2 VIS 2V2 1/2 SLP199 T00870085 57023

More Conditions Fewer Conditions

10-Day Weather Forecast

Almanac

Astronomy

Mar. 03, 2015 Rise Set
Actual Time
Civil Twilight
Nautical Twilight
Astronomical Twilight
Moon
Length of Visible Light
Length of Day
Tomorrow will be .
, % of the Moon is Illuminated

Today's Extremes

State Highs State Lows

Community

WunderPhotos

Upload Photos

1,802,075 photos uploaded!

WunderBlogs® & News

Nearby

Air Quality

  Air Quality AQ Index Pollutant
Not available.

Snow Depth

Station Depth Elevation

Earthquake Activity

City Distance Mag. Time & Date
Minimum magnitude displayed is 2.5.

Coastal Water Temperatures

Place Temperature

Nearby Weather Stations

Dense Fog Advisory
Statement as of 7:15 PM CST on March 02, 2015

... Dense fog advisory in effect from midnight tonight to 10 am
CST Tuesday...

The National Weather Service in Lake Charles has issued a dense
fog advisory... which is in effect from midnight tonight to 10 am
CST Tuesday.

* Visibility... one quarter of a mile or less at times.

* Impacts... reduced visibilities making for hazardous driving
conditions... especially when visibilities change quickly over a
short distance.

Precautionary/preparedness actions...

A dense fog advisory means visibilities will frequently be
reduced to less than one quarter mile. If driving... slow down...
use your headlights... and leave plenty of distance ahead of you.